createdAt,value
2023-02-15T00:00:12.249Z,0.4
2023-02-15T00:03:12.330Z,0.4
2023-02-15T00:06:12.624Z,0.4
2023-02-15T00:09:12.080Z,0.5
2023-02-15T00:12:11.932Z,0.4
2023-02-15T00:15:11.927Z,0.4
2023-02-15T00:18:11.941Z,0.5
2023-02-15T00:21:11.975Z,0.5
2023-02-15T00:24:12.027Z,0.5
2023-02-15T00:27:12.013Z,0.4
2023-02-15T00:30:12.514Z,0.5
2023-02-15T00:33:11.934Z,0.5
2023-02-15T00:36:12.760Z,0.4
2023-02-15T00:39:12.029Z,0.4
2023-02-15T00:42:12.055Z,0.4
2023-02-15T00:45:11.937Z,0.3
2023-02-15T00:48:11.916Z,0.3
2023-02-15T00:51:11.972Z,0.3
2023-02-15T00:54:11.996Z,0.3
2023-02-15T00:57:12.000Z,0.3
2023-02-15T01:00:12.042Z,0.3
2023-02-15T01:03:11.971Z,0.3
2023-02-15T01:06:12.833Z,0.3
2023-02-15T01:09:12.001Z,0.3
2023-02-15T01:12:11.898Z,0.3
2023-02-15T01:15:11.991Z,0.3
2023-02-15T01:18:12.015Z,0.3
2023-02-15T01:21:11.988Z,0.3
2023-02-15T01:24:11.972Z,0.3
2023-02-15T01:27:11.964Z,0.4
2023-02-15T01:30:12.582Z,0.4
2023-02-15T01:33:11.902Z,0.4
2023-02-15T01:36:12.844Z,0.4
2023-02-15T01:39:11.975Z,0.5
2023-02-15T01:42:11.960Z,0.5
2023-02-15T01:45:11.996Z,0.5
2023-02-15T01:48:12.092Z,0.5
2023-02-15T01:51:13.343Z,0.5
2023-02-15T01:54:12.009Z,0.4
2023-02-15T01:57:12.057Z,0.4
2023-02-15T02:00:12.075Z,0.3
2023-02-15T02:03:12.445Z,0.1
2023-02-15T02:06:12.913Z,0
2023-02-15T02:09:11.991Z,0
2023-02-15T02:12:11.930Z,0
2023-02-15T02:15:11.953Z,0
2023-02-15T02:18:11.996Z,0
2023-02-15T02:21:11.961Z,0
2023-02-15T02:24:11.923Z,0
2023-02-15T02:27:12.002Z,0
2023-02-15T02:30:12.353Z,-0.1
2023-02-15T02:33:11.843Z,-0.1
2023-02-15T02:36:13.126Z,-0.1
2023-02-15T02:39:12.019Z,-0.1
2023-02-15T02:42:11.960Z,-0.1
2023-02-15T02:45:12.030Z,-0.1
2023-02-15T02:48:12.022Z,0
2023-02-15T02:51:12.017Z,0
2023-02-15T02:54:11.941Z,0
2023-02-15T02:57:11.991Z,0
2023-02-15T03:00:12.102Z,0
2023-02-15T03:03:12.372Z,0
2023-02-15T03:06:13.079Z,0
2023-02-15T03:09:11.931Z,-0.1
2023-02-15T03:12:12.064Z,-0.3
2023-02-15T03:15:12.196Z,-0.3
2023-02-15T03:18:12.028Z,-0.3
2023-02-15T03:21:11.994Z,-0.3
2023-02-15T03:24:12.001Z,-0.3
2023-02-15T03:27:11.985Z,-0.3
2023-02-15T03:30:12.486Z,-0.4
2023-02-15T03:33:12.010Z,-0.4
2023-02-15T03:36:12.967Z,-0.5
2023-02-15T03:39:11.918Z,-0.5
2023-02-15T03:42:11.991Z,-0.6
2023-02-15T03:45:11.959Z,-0.8
2023-02-15T03:48:11.971Z,-0.8
2023-02-15T03:51:11.938Z,-0.8
2023-02-15T03:54:11.936Z,-0.9
2023-02-15T03:57:11.962Z,-0.9
2023-02-15T04:00:12.110Z,-0.9
2023-02-15T04:03:12.363Z,-0.9
2023-02-15T04:06:13.065Z,-0.9
2023-02-15T04:09:11.997Z,-1
2023-02-15T04:12:11.968Z,-1
2023-02-15T04:15:12.099Z,-1
2023-02-15T04:18:11.998Z,-1
2023-02-15T04:21:11.931Z,-1.1
2023-02-15T04:24:11.980Z,-1.1
2023-02-15T04:27:11.900Z,-1.1
2023-02-15T04:30:12.270Z,-1.1
2023-02-15T04:33:11.982Z,-1.3
2023-02-15T04:36:12.811Z,-1.3
2023-02-15T04:39:11.912Z,-1.3
2023-02-15T04:42:11.989Z,-1.3
2023-02-15T04:45:11.992Z,-1.3
2023-02-15T04:48:11.920Z,-1.3
2023-02-15T04:51:12.065Z,-1.1
2023-02-15T04:54:11.959Z,-1.1
2023-02-15T04:57:12.117Z,-1.1
2023-02-15T05:00:12.790Z,-1.1
2023-02-15T05:03:11.938Z,-1.1
2023-02-15T05:06:12.882Z,-1.1
2023-02-15T05:09:11.954Z,-1.3
2023-02-15T05:12:11.935Z,-1.3
2023-02-15T05:15:11.975Z,-1.3
2023-02-15T05:18:11.890Z,-1.4
2023-02-15T05:21:11.995Z,-1.4
2023-02-15T05:24:11.902Z,-1.5
2023-02-15T05:27:11.969Z,-1.5
2023-02-15T05:30:13.184Z,0.4
2023-02-15T05:33:11.978Z,0.4
2023-02-15T05:36:14.692Z,0.2
2023-02-15T05:39:12.135Z,0.2
2023-02-15T05:42:11.988Z,0.1
2023-02-15T05:45:11.985Z,0.1
2023-02-15T05:48:11.968Z,0
2023-02-15T05:51:12.009Z,0
2023-02-15T05:54:11.938Z,-0.1
2023-02-15T05:57:11.901Z,-0.1
2023-02-15T06:00:12.167Z,-0.3
2023-02-15T06:03:12.205Z,-0.3
2023-02-15T06:06:13.274Z,-0.4
2023-02-15T06:09:11.939Z,-0.4
2023-02-15T06:12:11.997Z,-0.5
2023-02-15T06:15:11.948Z,-0.5
2023-02-15T06:18:11.958Z,-0.5
2023-02-15T06:21:12.022Z,-0.5
2023-02-15T06:24:12.004Z,-0.5
2023-02-15T06:27:11.950Z,-0.5
2023-02-15T06:30:12.809Z,-0.4
2023-02-15T06:33:11.979Z,-0.4
2023-02-15T06:36:13.343Z,-0.4
2023-02-15T06:39:12.013Z,-0.3
2023-02-15T06:42:12.143Z,-0.3
2023-02-15T06:45:15.187Z,-0.3
2023-02-15T06:48:12.060Z,-0.3
2023-02-15T06:51:11.991Z,-0.3
2023-02-15T06:54:12.004Z,-0.3
2023-02-15T06:57:12.010Z,-0.1
2023-02-15T07:00:12.521Z,-0.1
2023-02-15T07:03:12.121Z,-0.1
2023-02-15T07:06:13.323Z,-0.1
2023-02-15T07:09:12.017Z,0
2023-02-15T07:12:12.019Z,0
2023-02-15T07:15:12.137Z,0
2023-02-15T07:18:12.005Z,0.1
2023-02-15T07:21:12.075Z,0.2
2023-02-15T07:24:12.016Z,0.4
2023-02-15T07:27:13.519Z,-1.5
2023-02-15T07:30:13.279Z,-1.5
2023-02-15T07:33:16.113Z,-1.4
2023-02-15T07:36:13.190Z,-1.3
2023-02-15T07:39:12.032Z,-1.3
2023-02-15T07:42:12.090Z,-1.1
2023-02-15T07:45:12.068Z,-1
2023-02-15T07:48:11.996Z,-1
2023-02-15T07:51:12.053Z,-0.9
2023-02-15T07:54:12.142Z,-0.8
2023-02-15T07:57:12.059Z,-0.8
2023-02-15T08:00:12.898Z,-0.6
2023-02-15T08:03:13.082Z,-0.5
2023-02-15T08:06:13.200Z,-0.4
2023-02-15T08:09:11.999Z,-0.4
2023-02-15T08:12:12.045Z,-0.3
2023-02-15T08:15:12.073Z,-0.3
2023-02-15T08:18:12.092Z,-0.1
2023-02-15T08:21:12.049Z,0
2023-02-15T08:24:12.102Z,0
2023-02-15T08:27:14.601Z,0.1
2023-02-15T08:30:12.678Z,0.1
2023-02-15T08:33:12.091Z,0.3
2023-02-15T08:36:11.976Z,0.4
2023-02-15T08:39:12.045Z,0.4
2023-02-15T08:42:12.030Z,0.6
2023-02-15T08:45:12.016Z,0.6
2023-02-15T08:48:12.139Z,0.8
2023-02-15T08:51:13.375Z,0.9
2023-02-15T08:54:12.033Z,1
2023-02-15T08:57:12.133Z,1.3
2023-02-15T09:00:12.295Z,1.5
2023-02-15T09:03:11.959Z,5.4
2023-02-15T09:06:12.052Z,9.4
2023-02-15T09:09:12.152Z,11.8
2023-02-15T09:12:12.045Z,13.8
2023-02-15T09:15:12.064Z,15.4
2023-02-15T09:18:12.146Z,16.6
2023-02-15T09:21:13.031Z,17.9
2023-02-15T09:24:12.013Z,18.9
2023-02-15T09:27:12.270Z,19.8
2023-02-15T09:30:12.800Z,20.4
2023-02-15T09:33:12.023Z,21.1
2023-02-15T09:36:12.076Z,21.6
2023-02-15T09:39:12.099Z,21.8
2023-02-15T09:42:12.076Z,21.9
2023-02-15T09:45:12.021Z,22
2023-02-15T09:48:12.056Z,22.4
2023-02-15T09:51:13.173Z,22.8
2023-02-15T09:54:12.089Z,23.3
2023-02-15T09:57:12.029Z,23.9
2023-02-15T10:00:12.093Z,24.4
2023-02-15T10:03:15.075Z,24.7
2023-02-15T10:06:12.034Z,25.3
2023-02-15T10:09:11.992Z,25.5
2023-02-15T10:12:12.158Z,25.9
2023-02-15T10:15:12.032Z,26.2
2023-02-15T10:18:12.009Z,26.8
2023-02-15T10:21:13.341Z,27.1
2023-02-15T10:24:12.178Z,27.4
2023-02-15T10:27:12.014Z,27.6
2023-02-15T10:30:12.735Z,28
2023-02-15T10:33:12.001Z,28.6
2023-02-15T10:36:12.109Z,28.9
2023-02-15T10:39:11.942Z,29.3
2023-02-15T10:42:12.007Z,29.4
2023-02-15T10:45:12.085Z,29.4
2023-02-15T10:48:12.037Z,29.8
2023-02-15T10:51:13.036Z,30.1
2023-02-15T10:54:12.071Z,30.3
2023-02-15T10:57:12.067Z,30.5
2023-02-15T11:00:12.507Z,30.8
2023-02-15T11:03:12.027Z,31
2023-02-15T11:06:12.094Z,31.2
2023-02-15T11:09:12.151Z,31.4
2023-02-15T11:12:11.979Z,31.5
2023-02-15T11:15:12.027Z,31.8
2023-02-15T11:18:12.037Z,32.1
2023-02-15T11:21:13.211Z,32.2
2023-02-15T11:24:12.098Z,32.4
2023-02-15T11:27:12.460Z,32.5
2023-02-15T11:30:12.796Z,33
2023-02-15T11:33:13.893Z,33.5
2023-02-15T11:36:12.037Z,33.9
2023-02-15T11:39:12.070Z,33.7
2023-02-15T11:42:12.041Z,33.7
2023-02-15T11:45:12.151Z,34
2023-02-15T11:48:12.034Z,34.1
2023-02-15T11:51:13.068Z,34.5
2023-02-15T11:54:12.026Z,34.9
2023-02-15T11:57:11.966Z,35.2
2023-02-15T12:00:12.212Z,35.5
2023-02-15T12:03:12.326Z,35.6
2023-02-15T12:06:12.082Z,35.6
2023-02-15T12:09:11.987Z,35.5
2023-02-15T12:12:12.003Z,35.2
2023-02-15T12:15:12.114Z,35
2023-02-15T12:18:12.007Z,34.6
2023-02-15T12:21:12.963Z,34.2
2023-02-15T12:24:12.072Z,34
2023-02-15T12:27:12.134Z,33.9
2023-02-15T12:30:12.612Z,33.9
2023-02-15T12:33:12.094Z,33.7
2023-02-15T12:36:13.428Z,33.6
2023-02-15T12:39:12.056Z,33.5
2023-02-15T12:42:12.005Z,33.5
2023-02-15T12:45:12.122Z,33.5
2023-02-15T12:48:11.996Z,33.5
2023-02-15T12:51:12.911Z,33.4
2023-02-15T12:54:12.036Z,33.1
2023-02-15T12:57:12.167Z,33.1
2023-02-15T13:00:12.368Z,33
2023-02-15T13:03:12.076Z,32.5
2023-02-15T13:06:12.046Z,27.6
2023-02-15T13:09:12.102Z,23.9
2023-02-15T13:12:11.986Z,23.6
2023-02-15T13:15:12.117Z,26.2
2023-02-15T13:18:11.993Z,28
2023-02-15T13:21:13.426Z,29.1
2023-02-15T13:24:12.536Z,30
2023-02-15T13:27:27.240Z,30.6
2023-02-15T13:30:28.066Z,31.1
2023-02-15T13:33:12.040Z,31.4
2023-02-15T13:36:12.076Z,31.5
2023-02-15T13:39:12.061Z,31.6
2023-02-15T13:42:12.066Z,31.6
2023-02-15T13:45:12.100Z,31.5
2023-02-15T13:48:11.941Z,31.1
2023-02-15T13:51:12.001Z,30.6
2023-02-15T13:54:12.011Z,30.1
2023-02-15T13:57:12.079Z,30
2023-02-15T14:00:13.025Z,30
2023-02-15T14:03:12.072Z,30
2023-02-15T14:06:12.010Z,29.9
2023-02-15T14:09:12.080Z,29.9
2023-02-15T14:12:11.985Z,30
2023-02-15T14:15:12.135Z,30.3
2023-02-15T14:18:12.053Z,30.4
2023-02-15T14:21:13.238Z,30.5
2023-02-15T14:24:12.181Z,30.4
2023-02-15T14:27:14.408Z,29.9
2023-02-15T14:30:13.149Z,27.4
2023-02-15T14:33:12.272Z,25.9
2023-02-15T14:36:12.086Z,25.4
2023-02-15T14:39:15.000Z,24.7
2023-02-15T14:42:12.095Z,25.4
2023-02-15T14:45:12.046Z,24.5
2023-02-15T14:48:12.055Z,24.1
2023-02-15T14:51:13.216Z,24.9
2023-02-15T14:54:12.053Z,25.3
2023-02-15T14:57:12.269Z,23.3
2023-02-15T15:00:12.231Z,21.1
2023-02-15T15:03:11.985Z,19.5
2023-02-15T15:06:17.539Z,18.5
2023-02-15T15:09:12.006Z,18.1
2023-02-15T15:12:12.005Z,18.4
2023-02-15T15:15:12.010Z,18.1
2023-02-15T15:18:12.000Z,17.8
2023-02-15T15:21:12.045Z,17.4
2023-02-15T15:24:11.983Z,17.2
2023-02-15T15:27:12.231Z,16.8
2023-02-15T15:30:12.461Z,16.1
2023-02-15T15:33:12.105Z,15.3
2023-02-15T15:36:13.026Z,14.5
2023-02-15T15:39:12.121Z,13.9
2023-02-15T15:42:12.050Z,13.3
2023-02-15T15:45:14.207Z,12.9
2023-02-15T15:48:18.786Z,12.5
2023-02-15T15:51:12.035Z,12
2023-02-15T15:54:11.957Z,11.6
2023-02-15T15:57:14.433Z,11.4
2023-02-15T16:00:12.224Z,10.9
2023-02-15T16:03:14.488Z,10.4
2023-02-15T16:06:13.657Z,10
2023-02-15T16:09:14.252Z,9.5
2023-02-15T16:12:11.999Z,9.1
2023-02-15T16:15:11.986Z,8.6
2023-02-15T16:18:12.169Z,8.3
2023-02-15T16:21:12.046Z,7.9
2023-02-15T16:24:12.159Z,7.5
2023-02-15T16:27:12.200Z,7.1
2023-02-15T16:30:12.392Z,6.9
2023-02-15T16:33:11.943Z,6.7
2023-02-15T16:36:13.390Z,6.5
2023-02-15T16:39:11.954Z,6.2
2023-02-15T16:42:12.058Z,6.1
2023-02-15T16:45:11.990Z,5.9
2023-02-15T16:48:11.958Z,5.6
2023-02-15T16:51:13.644Z,5.5
2023-02-15T16:54:11.924Z,5.2
2023-02-15T16:57:14.298Z,5
2023-02-15T17:00:12.178Z,4.7
2023-02-15T17:03:13.836Z,4.5
2023-02-15T17:06:11.985Z,4.2
2023-02-15T17:09:14.737Z,4
2023-02-15T17:12:12.365Z,3.7
2023-02-15T17:15:14.538Z,3.6
2023-02-15T17:18:11.952Z,3.4
2023-02-15T17:21:12.022Z,3.2
2023-02-15T17:24:11.959Z,3.1
2023-02-15T17:27:14.888Z,2.9
2023-02-15T17:30:12.994Z,2.7
2023-02-15T17:33:14.636Z,2.6
2023-02-15T17:36:12.020Z,2.5
2023-02-15T17:39:14.463Z,2.4
2023-02-15T17:42:11.956Z,2.2
2023-02-15T17:45:15.836Z,2.1
2023-02-15T17:48:11.950Z,2
2023-02-15T17:51:15.596Z,1.9
2023-02-15T17:54:12.010Z,1.8
2023-02-15T17:57:12.121Z,1.6
2023-02-15T18:00:12.209Z,1.5
2023-02-15T18:03:14.398Z,1.4
2023-02-15T18:06:12.043Z,1.4
2023-02-15T18:09:14.712Z,1.3
2023-02-15T18:12:12.105Z,1.1
2023-02-15T18:15:14.896Z,1
2023-02-15T18:18:11.983Z,1
2023-02-15T18:21:16.101Z,1
2023-02-15T18:24:12.051Z,0.9
2023-02-15T18:27:12.050Z,0.9
2023-02-15T18:30:12.514Z,0.8
2023-02-15T18:33:12.041Z,0.6
2023-02-15T18:36:12.383Z,0.6
2023-02-15T18:39:20.029Z,0.5
2023-02-15T18:42:12.013Z,0.5
2023-02-15T18:45:12.256Z,0.5
2023-02-15T18:48:12.086Z,0.4
2023-02-15T18:51:13.358Z,0.4
2023-02-15T18:54:11.979Z,0.3
2023-02-15T18:57:12.071Z,0.3
2023-02-15T19:00:11.970Z,0.3
2023-02-15T19:03:12.026Z,0.1
2023-02-15T19:06:11.933Z,0.1
2023-02-15T19:09:12.004Z,0
2023-02-15T19:12:12.000Z,0
2023-02-15T19:15:12.006Z,-0.1
2023-02-15T19:18:12.027Z,-0.1
2023-02-15T19:21:11.911Z,-0.1
2023-02-15T19:24:11.985Z,-0.1
2023-02-15T19:27:12.008Z,-0.1
2023-02-15T19:30:12.763Z,-0.3
2023-02-15T19:33:11.957Z,-0.3
2023-02-15T19:36:12.741Z,-0.3
2023-02-15T19:39:11.997Z,-0.3
2023-02-15T19:42:11.965Z,-0.3
2023-02-15T19:45:12.040Z,-0.3
2023-02-15T19:48:12.039Z,-0.4
2023-02-15T19:51:11.942Z,-0.4
2023-02-15T19:54:12.026Z,-0.4
2023-02-15T19:57:12.025Z,-0.5
2023-02-15T20:00:32.902Z,-0.5
2023-02-15T20:03:11.931Z,-0.5
2023-02-15T20:06:11.983Z,-0.6
2023-02-15T20:09:11.998Z,-0.6
2023-02-15T20:12:11.987Z,-0.6
2023-02-15T20:15:11.985Z,-0.6
2023-02-15T20:18:12.007Z,-0.6
2023-02-15T20:21:13.283Z,-0.6
2023-02-15T20:24:12.016Z,-0.8
2023-02-15T20:27:11.990Z,-0.8
2023-02-15T20:30:12.608Z,-0.8
2023-02-15T20:33:12.085Z,-0.8
2023-02-15T20:36:11.938Z,-0.8
2023-02-15T20:39:12.011Z,-0.8
2023-02-15T20:42:11.951Z,-0.8
2023-02-15T20:45:11.996Z,-0.8
2023-02-15T20:48:11.953Z,-0.8
2023-02-15T20:51:13.152Z,-0.8
2023-02-15T20:54:11.951Z,-0.9
2023-02-15T20:57:11.913Z,-0.9
2023-02-15T21:00:11.995Z,-0.9
2023-02-15T21:03:11.952Z,-1
2023-02-15T21:06:11.900Z,-1
2023-02-15T21:09:11.935Z,-1
2023-02-15T21:12:11.997Z,-1
2023-02-15T21:15:12.004Z,-1
2023-02-15T21:18:11.917Z,-1
2023-02-15T21:21:13.050Z,-1
2023-02-15T21:24:11.932Z,-1.1
2023-02-15T21:27:11.922Z,-1.1
2023-02-15T21:30:12.427Z,-1.1
2023-02-15T21:33:11.927Z,-1.1
2023-02-15T21:36:11.978Z,-1.1
2023-02-15T21:39:12.049Z,-1.3
2023-02-15T21:42:11.963Z,-1.3
2023-02-15T21:45:12.167Z,-1.3
2023-02-15T21:48:11.963Z,-1.3
2023-02-15T21:51:12.814Z,-1.3
2023-02-15T21:54:11.950Z,-1.3
2023-02-15T21:57:12.048Z,-1.3
2023-02-15T22:00:12.057Z,-1.3
2023-02-15T22:03:12.066Z,-1.1
2023-02-15T22:06:11.970Z,-1.1
2023-02-15T22:09:11.947Z,-1.1
2023-02-15T22:12:11.989Z,-1
2023-02-15T22:15:11.981Z,-1
2023-02-15T22:18:12.010Z,-1
2023-02-15T22:21:13.509Z,-0.9
2023-02-15T22:24:11.971Z,-0.9
2023-02-15T22:27:11.985Z,-0.9
2023-02-15T22:30:12.398Z,-0.9
2023-02-15T22:33:14.856Z,-0.9
2023-02-15T22:36:11.939Z,-0.8
2023-02-15T22:39:11.941Z,-0.8
2023-02-15T22:42:11.903Z,-0.8
2023-02-15T22:45:14.734Z,-0.8
2023-02-15T22:48:11.959Z,-0.9
2023-02-15T22:51:13.059Z,-0.9
2023-02-15T22:54:12.002Z,-0.9
2023-02-15T22:57:12.162Z,-0.9
2023-02-15T23:00:12.496Z,-0.9
2023-02-15T23:03:11.907Z,-0.8
2023-02-15T23:06:11.983Z,-0.8
2023-02-15T23:09:12.033Z,-0.8
2023-02-15T23:12:11.924Z,-0.8
2023-02-15T23:15:12.052Z,-0.8
2023-02-15T23:18:11.921Z,-0.6
2023-02-15T23:21:12.851Z,-0.6
2023-02-15T23:24:12.009Z,-0.3
2023-02-15T23:27:11.952Z,0.1
2023-02-15T23:30:12.332Z,0.4
2023-02-15T23:33:11.910Z,0.4
2023-02-15T23:36:11.956Z,0.4
2023-02-15T23:39:11.969Z,0.4
2023-02-15T23:42:11.970Z,0.3
2023-02-15T23:45:12.066Z,0.1
2023-02-15T23:48:11.967Z,0.1
2023-02-15T23:51:12.738Z,0.3
2023-02-15T23:54:11.899Z,0.4
2023-02-15T23:57:11.931Z,0.4
